You are not logged in, Click here to log in
臺北松山機場TSA / RCSS 臺北市松山區敦化北路340-9號
ICAO: RCSS Country: 臺北市松山區敦化北路340-9號
Latitude: 25.0676 Longitude: 121.553
Total Arrivals: 311 Total Departures: 278
Latest Arrival: AE5569 (RCKH-RCSS)Deven. Chu Latest Departure: B7885 (RCSS-RCBS)CHUANYI. Lin
Scenery:
METAR : RCSS 221000Z 09012KT 8000 VCSH FEW008 BKN016 BKN040 18/16 Q1027 NOSIG RMK A3033

臺北松山機場TSA